Time;durP1;ratioP1;P1;durP2;ratioP2;P2;SDS_P1;SDS_P2;PMS_P1;PMS_P2;Temp;Humidity;BMP_temperature;BMP_pressure;BME280_temperature;BME280_humidity;BME280_pressure;Samples;Min_cycle;Max_cycle;Signal;HPM_P1;HPM_P2
2023/08/09 00:01:20;;;;;;;2.63;1.70;;;13.40;99.90;;;;;;5128859;28;20212;-48
2023/08/09 00:03:51;;;;;;;2.07;1.70;;;13.30;99.90;;;;;;5142456;28;20185;-46
2023/08/09 00:06:21;;;;;;;1.40;1.37;;;13.30;99.90;;;;;;5146693;28;20187;-46
2023/08/09 00:08:52;;;;;;;3.97;2.33;;;13.20;99.90;;;;;;5140178;28;20303;-48
2023/08/09 00:11:22;;;;;;;2.00;1.70;;;13.10;99.90;;;;;;5129477;28;20204;-47
2023/08/09 00:13:53;;;;;;;4.87;1.93;;;13.10;99.90;;;;;;5144841;28;20174;-46
2023/08/09 00:16:24;;;;;;;2.20;1.87;;;13.00;99.90;;;;;;5129888;28;20189;-48
2023/08/09 00:18:55;;;;;;;1.80;1.70;;;12.90;99.90;;;;;;5143526;28;20186;-47
2023/08/09 00:21:25;;;;;;;2.40;1.63;;;12.90;99.90;;;;;;5146355;28;20197;-47
2023/08/09 00:23:56;;;;;;;1.50;1.50;;;12.90;99.90;;;;;;5147555;28;20261;-46
2023/08/09 00:26:26;;;;;;;1.60;1.50;;;12.90;99.90;;;;;;5133732;28;20256;-48
2023/08/09 00:28:57;;;;;;;2.90;2.10;;;12.80;99.90;;;;;;5148181;28;20252;-48
2023/08/09 00:31:28;;;;;;;1.80;1.70;;;12.80;99.90;;;;;;5129826;28;20661;-45
2023/08/09 00:33:58;;;;;;;1.80;1.70;;;12.90;99.90;;;;;;5145003;28;20190;-46
2023/08/09 00:36:29;;;;;;;1.73;1.50;;;12.90;99.90;;;;;;5144148;28;20217;-45
2023/08/09 00:39:00;;;;;;;2.57;1.50;;;12.90;99.90;;;;;;5135864;28;20188;-47
2023/08/09 00:41:31;;;;;;;3.27;1.77;;;12.90;99.90;;;;;;5133535;28;20239;-46
2023/08/09 00:44:02;;;;;;;2.23;1.73;;;13.00;99.90;;;;;;5150437;28;20186;-45
2023/08/09 00:46:35;;;;;;;1.57;1.40;;;13.10;99.90;;;;;;5148005;28;20436;-46
2023/08/09 00:49:06;;;;;;;4.00;1.60;;;13.10;99.90;;;;;;5149367;28;20209;-47
2023/08/09 00:51:37;;;;;;;2.30;1.53;;;13.10;99.90;;;;;;5143510;28;20456;-47
2023/08/09 00:54:08;;;;;;;1.73;1.50;;;13.20;99.90;;;;;;5147547;28;20182;-49
2023/08/09 00:56:39;;;;;;;1.93;1.60;;;13.20;99.90;;;;;;5131490;28;20449;-47
2023/08/09 00:59:10;;;;;;;1.97;1.77;;;13.30;99.90;;;;;;5141569;28;20436;-46
2023/08/09 01:01:40;;;;;;;1.37;1.37;;;13.30;99.90;;;;;;5129247;28;20471;-46
2023/08/09 01:04:11;;;;;;;1.90;1.63;;;13.30;99.90;;;;;;5142613;28;20378;-47
2023/08/09 01:07:14;;;;;;;1.57;1.30;;;13.30;99.90;;;;;;5130619;28;20186;-46
2023/08/09 01:10:15;;;;;;;3.70;1.70;;;13.30;99.90;;;;;;5144127;28;20216;-46
2023/08/09 01:12:52;;;;;;;4.63;2.10;;;13.30;99.90;;;;;;5124737;28;20743;-46
2023/08/09 01:15:23;;;;;;;3.87;1.90;;;13.30;99.90;;;;;;5146972;28;20440;-47
2023/08/09 01:17:55;;;;;;;2.67;1.77;;;13.30;99.90;;;;;;5144680;28;20462;-47
2023/08/09 01:20:27;;;;;;;1.47;1.47;;;13.30;99.90;;;;;;5127214;28;20536;-48
2023/08/09 01:23:03;;;;;;;1.13;1.00;;;13.40;99.90;;;;;;5142176;28;20433;-46
2023/08/09 01:25:34;;;;;;;2.70;1.70;;;13.30;99.90;;;;;;5143649;28;20432;-47
2023/08/09 01:28:05;;;;;;;1.17;1.00;;;13.30;99.90;;;;;;5145029;28;20444;-47
2023/08/09 01:30:37;;;;;;;1.10;1.10;;;13.30;99.90;;;;;;5146025;28;20217;-46
2023/08/09 01:33:08;;;;;;;8.97;1.70;;;13.30;99.90;;;;;;5147281;28;20441;-47
2023/08/09 01:35:47;;;;;;;1.33;1.33;;;13.30;99.90;;;;;;5136675;28;20437;-47
2023/08/09 01:38:22;;;;;;;1.83;1.37;;;13.30;99.90;;;;;;5128860;28;20325;-47
2023/08/09 01:40:54;;;;;;;6.73;1.40;;;13.30;99.90;;;;;;5128898;28;20447;-47
2023/08/09 01:43:26;;;;;;;1.07;1.07;;;13.30;99.90;;;;;;5145126;28;20956;-47
2023/08/09 01:45:59;;;;;;;2.67;1.33;;;13.30;99.90;;;;;;5133792;28;20820;-48
2023/08/09 01:48:29;;;;;;;2.97;1.63;;;13.30;99.90;;;;;;5131294;28;20429;-46
2023/08/09 01:51:01;;;;;;;2.10;1.87;;;13.30;99.90;;;;;;5128011;28;20800;-47
2023/08/09 01:53:32;;;;;;;7.90;2.43;;;13.30;99.90;;;;;;5126861;28;20189;-48
2023/08/09 01:56:03;;;;;;;4.10;3.00;;;13.30;99.90;;;;;;5142700;28;20455;-47
2023/08/09 01:58:34;;;;;;;2.37;2.00;;;13.30;99.90;;;;;;5131170;28;20339;-48
2023/08/09 02:01:05;;;;;;;1.53;1.43;;;13.30;99.90;;;;;;5145650;28;20475;-48
2023/08/09 02:03:35;;;;;;;4.90;1.33;;;13.30;99.90;;;;;;5130585;28;20193;-48
2023/08/09 02:06:06;;;;;;;3.30;1.60;;;13.30;99.90;;;;;;5145307;28;20268;-47
2023/08/09 02:08:36;;;;;;;5.83;1.07;;;13.30;99.90;;;;;;5126090;28;20553;-47
2023/08/09 02:11:07;;;;;;;2.40;1.27;;;13.30;99.90;;;;;;5144661;28;20229;-48
2023/08/09 02:13:39;;;;;;;1.90;1.17;;;13.30;99.90;;;;;;5145019;28;20197;-48
2023/08/09 02:16:09;;;;;;;1.77;1.67;;;13.30;99.90;;;;;;5145492;28;20229;-47
2023/08/09 02:18:40;;;;;;;3.70;2.20;;;13.20;99.90;;;;;;5143966;28;20461;-47
2023/08/09 02:21:11;;;;;;;1.40;1.30;;;13.20;99.90;;;;;;5145124;28;20678;-48
2023/08/09 02:23:42;;;;;;;1.33;1.23;;;13.20;99.90;;;;;;5144758;28;20181;-46
2023/08/09 02:26:14;;;;;;;1.47;1.47;;;13.30;99.90;;;;;;5141038;28;20441;-47
2023/08/09 02:28:45;;;;;;;6.10;1.17;;;13.30;99.90;;;;;;5127737;28;20217;-46
2023/08/09 02:31:18;;;;;;;1.60;1.60;;;13.30;99.90;;;;;;5146021;28;20452;-46
2023/08/09 02:33:49;;;;;;;2.20;1.67;;;13.30;99.90;;;;;;5129232;28;20468;-47
2023/08/09 02:36:19;;;;;;;4.37;1.50;;;13.30;99.90;;;;;;5141428;28;20437;-46
2023/08/09 02:38:51;;;;;;;1.67;1.10;;;13.30;99.90;;;;;;5141206;28;20274;-46
2023/08/09 02:41:22;;;;;;;3.07;1.50;;;13.30;99.90;;;;;;5144375;28;20210;-47
2023/08/09 02:43:52;;;;;;;1.77;1.63;;;13.40;99.90;;;;;;5143999;28;20487;-47
2023/08/09 02:46:23;;;;;;;2.47;1.20;;;13.40;99.90;;;;;;5140681;28;20189;-48
2023/08/09 02:48:54;;;;;;;1.20;1.20;;;13.30;99.90;;;;;;5143330;28;20251;-46
2023/08/09 02:51:24;;;;;;;2.73;1.40;;;13.40;99.90;;;;;;5128435;28;20270;-47
2023/08/09 02:54:01;;;;;;;1.60;1.50;;;13.30;99.90;;;;;;5130012;28;20181;-47
2023/08/09 02:56:33;;;;;;;2.03;1.83;;;13.40;99.90;;;;;;5131868;28;20187;-47
2023/08/09 02:59:04;;;;;;;2.77;2.20;;;13.40;99.90;;;;;;5145524;28;20523;-47
2023/08/09 03:01:34;;;;;;;8.37;1.97;;;13.30;99.90;;;;;;5140033;28;20563;-47
2023/08/09 03:04:05;;;;;;;1.57;1.40;;;13.30;99.90;;;;;;5128056;28;20182;-46
2023/08/09 03:06:36;;;;;;;1.67;1.57;;;13.20;99.90;;;;;;5140568;28;20236;-46
2023/08/09 03:09:07;;;;;;;3.63;1.60;;;13.20;99.90;;;;;;5142522;28;20294;-47
2023/08/09 03:11:38;;;;;;;1.23;1.10;;;13.20;99.90;;;;;;5143799;28;20221;-47
2023/08/09 03:14:10;;;;;;;0.90;0.90;;;13.20;99.90;;;;;;5142457;28;20655;-49
2023/08/09 03:16:41;;;;;;;5.27;1.50;;;13.20;99.90;;;;;;5138365;28;20182;-46
2023/08/09 03:19:12;;;;;;;2.73;1.10;;;13.30;99.90;;;;;;5138233;28;20473;-48
2023/08/09 03:21:42;;;;;;;1.77;1.67;;;13.30;99.90;;;;;;5146042;28;20499;-47
2023/08/09 03:24:13;;;;;;;1.43;0.87;;;13.30;99.90;;;;;;5147351;28;20190;-46
2023/08/09 03:26:45;;;;;;;3.03;0.90;;;13.30;99.90;;;;;;5130111;28;20194;-46
2023/08/09 03:29:16;;;;;;;2.73;1.20;;;13.20;99.90;;;;;;5134224;28;20476;-46
2023/08/09 03:31:46;;;;;;;3.77;0.93;;;13.30;99.90;;;;;;5151866;28;20561;-47
2023/08/09 03:34:17;;;;;;;1.23;0.80;;;13.20;99.90;;;;;;5145725;28;20324;-45
2023/08/09 03:36:48;;;;;;;7.70;0.97;;;13.20;99.90;;;;;;5131226;28;20182;-47
2023/08/09 03:39:19;;;;;;;0.90;0.90;;;13.20;99.90;;;;;;5141053;28;20271;-46
2023/08/09 03:41:50;;;;;;;5.17;1.20;;;13.20;99.90;;;;;;5149811;28;20205;-46
2023/08/09 03:44:21;;;;;;;1.33;0.80;;;13.20;99.90;;;;;;5150213;28;20288;-47
2023/08/09 03:46:51;;;;;;;1.47;1.10;;;13.20;99.90;;;;;;5131444;28;20249;-46
2023/08/09 03:49:22;;;;;;;1.80;1.27;;;13.20;99.90;;;;;;5144658;28;20567;-46
2023/08/09 03:51:53;;;;;;;2.20;1.00;;;13.20;99.90;;;;;;5131228;28;20217;-46
2023/08/09 03:54:23;;;;;;;2.70;1.40;;;13.20;99.90;;;;;;5131040;28;20198;-46
2023/08/09 03:56:54;;;;;;;4.10;1.60;;;13.20;99.90;;;;;;5146768;28;20193;-46
2023/08/09 03:59:25;;;;;;;1.20;0.77;;;13.20;99.90;;;;;;5146310;28;20186;-46
2023/08/09 04:01:55;;;;;;;1.37;1.00;;;13.30;99.90;;;;;;5144368;28;20221;-46
2023/08/09 04:04:26;;;;;;;1.80;0.90;;;13.40;99.90;;;;;;5146026;28;20202;-46
2023/08/09 04:06:57;;;;;;;3.90;1.10;;;13.40;99.90;;;;;;5144120;28;20201;-46
2023/08/09 04:09:27;;;;;;;0.90;0.90;;;13.50;99.90;;;;;;5144232;28;21290;-47
2023/08/09 04:11:59;;;;;;;1.60;1.00;;;13.60;99.90;;;;;;5145841;28;20218;-47
2023/08/09 04:14:29;;;;;;;0.80;0.80;;;13.60;99.90;;;;;;5145621;28;20252;-46
2023/08/09 04:17:00;;;;;;;1.47;1.20;;;13.60;99.90;;;;;;5138130;28;20445;-47
2023/08/09 04:19:31;;;;;;;3.47;1.30;;;13.60;99.90;;;;;;5124051;28;20193;-46
2023/08/09 04:22:02;;;;;;;1.10;1.10;;;13.60;99.90;;;;;;5124586;28;20197;-47
2023/08/09 04:24:33;;;;;;;1.90;1.00;;;13.50;99.90;;;;;;5127411;28;20650;-48
2023/08/09 04:27:04;;;;;;;2.53;1.20;;;13.50;99.90;;;;;;5145545;28;20484;-47
2023/08/09 04:29:35;;;;;;;1.13;1.03;;;13.50;99.90;;;;;;5145296;28;20229;-46
2023/08/09 04:32:06;;;;;;;4.13;1.57;;;13.50;99.90;;;;;;5126759;28;20705;-47
2023/08/09 04:34:36;;;;;;;2.17;1.60;;;13.60;99.90;;;;;;5145179;28;20445;-46
2023/08/09 04:37:07;;;;;;;2.33;1.73;;;13.60;99.90;;;;;;5128200;28;20200;-46
2023/08/09 04:39:38;;;;;;;7.47;1.87;;;13.70;99.90;;;;;;5145203;28;20217;-46
2023/08/09 04:42:09;;;;;;;2.53;1.23;;;13.90;99.90;;;;;;5147891;28;20654;-46
2023/08/09 04:44:40;;;;;;;2.63;1.20;;;14.00;99.90;;;;;;5128482;28;20185;-46
2023/08/09 04:47:10;;;;;;;0.80;0.80;;;14.20;99.90;;;;;;5149028;28;20579;-48
2023/08/09 04:49:41;;;;;;;1.50;1.17;;;14.40;99.90;;;;;;5132833;28;20217;-46
2023/08/09 04:52:12;;;;;;;3.07;1.17;;;14.60;99.90;;;;;;5147484;28;20212;-47
2023/08/09 04:54:42;;;;;;;3.07;1.10;;;14.80;99.90;;;;;;5148729;28;20531;-46
2023/08/09 04:57:13;;;;;;;1.43;1.33;;;15.70;99.90;;;;;;5148503;28;20229;-46
2023/08/09 04:59:43;;;;;;;1.13;1.10;;;17.40;99.90;;;;;;5123591;28;20261;-48
2023/08/09 05:02:14;;;;;;;3.53;1.50;;;18.30;99.90;;;;;;5128989;28;20221;-48
2023/08/09 05:04:45;;;;;;;3.50;1.17;;;18.50;99.90;;;;;;5129272;28;20197;-48
2023/08/09 05:07:16;;;;;;;2.60;1.60;;;18.00;99.90;;;;;;5132593;28;20189;-46
2023/08/09 05:09:46;;;;;;;5.23;1.10;;;17.50;99.90;;;;;;5129472;28;20210;-47
2023/08/09 05:12:17;;;;;;;1.00;0.90;;;17.20;99.90;;;;;;5145704;28;20193;-46
2023/08/09 05:14:48;;;;;;;2.73;1.13;;;17.20;99.90;;;;;;5148992;28;20224;-46
2023/08/09 05:17:18;;;;;;;2.83;0.80;;;16.90;99.90;;;;;;5131299;28;20197;-46
2023/08/09 05:19:49;;;;;;;1.23;1.10;;;16.70;99.90;;;;;;5123978;28;20197;-47
2023/08/09 05:22:21;;;;;;;2.83;1.03;;;16.80;99.90;;;;;;5127152;28;20225;-46
2023/08/09 05:24:51;;;;;;;4.33;1.37;;;17.20;99.90;;;;;;5135054;28;20447;-46
2023/08/09 05:27:22;;;;;;;2.47;1.27;;;17.70;99.90;;;;;;5147777;28;20437;-48
2023/08/09 05:29:53;;;;;;;9.43;1.60;;;19.50;99.90;;;;;;5144769;28;20259;-46
2023/08/09 05:32:24;;;;;;;6.70;1.13;;;21.00;99.90;;;;;;5141622;28;20182;-47
2023/08/09 05:34:54;;;;;;;2.93;1.43;;;21.90;94.50;;;;;;5143510;28;20198;-47
2023/08/09 05:37:25;;;;;;;5.53;2.00;;;21.70;91.00;;;;;;5124969;28;20182;-47
2023/08/09 05:39:56;;;;;;;4.73;1.60;;;22.80;87.90;;;;;;5124074;28;20189;-47
2023/08/09 05:42:26;;;;;;;3.80;1.00;;;24.70;77.60;;;;;;5126974;28;20201;-47
2023/08/09 05:44:59;;;;;;;1.50;1.30;;;26.50;66.10;;;;;;5145906;28;20216;-47
2023/08/09 05:47:29;;;;;;;3.90;1.47;;;28.30;56.20;;;;;;5125746;28;20189;-47
2023/08/09 05:50:00;;;;;;;1.70;1.40;;;29.50;50.00;;;;;;5127460;28;20461;-47
2023/08/09 05:52:31;;;;;;;1.53;1.20;;;29.80;46.40;;;;;;5137377;28;20194;-47
2023/08/09 05:55:03;;;;;;;5.33;1.40;;;30.20;45.20;;;;;;5133688;28;20182;-47
2023/08/09 05:57:33;;;;;;;1.07;1.00;;;30.50;41.80;;;;;;5140132;28;20214;-47
2023/08/09 06:00:06;;;;;;;1.70;1.20;;;30.10;42.80;;;;;;5139899;28;20468;-47
2023/08/09 06:02:37;;;;;;;3.60;1.47;;;30.90;41.70;;;;;;5142415;28;20248;-48
2023/08/09 06:05:08;;;;;;;3.40;1.77;;;30.60;40.60;;;;;;5118130;28;20448;-48
2023/08/09 06:07:39;;;;;;;5.03;1.17;;;31.70;39.40;;;;;;5143242;28;20197;-47
2023/08/09 06:10:09;;;;;;;1.53;1.10;;;32.30;38.40;;;;;;5140225;28;20476;-48
2023/08/09 06:12:40;;;;;;;1.63;1.30;;;33.00;37.00;;;;;;5143123;28;20681;-47
2023/08/09 06:15:11;;;;;;;1.37;1.27;;;33.40;36.50;;;;;;5142215;28;20264;-47
2023/08/09 06:17:42;;;;;;;3.57;1.40;;;33.30;34.50;;;;;;5138000;28;20581;-49
2023/08/09 06:20:13;;;;;;;1.27;1.00;;;32.00;35.60;;;;;;5142688;28;20967;-47
2023/08/09 06:22:43;;;;;;;2.40;1.33;;;31.00;37.00;;;;;;5117377;28;20189;-48
2023/08/09 06:25:14;;;;;;;1.27;1.17;;;30.20;38.50;;;;;;5125661;28;20546;-47
2023/08/09 06:27:45;;;;;;;0.80;0.80;;;28.80;40.20;;;;;;5128575;28;20186;-48
2023/08/09 06:30:16;;;;;;;1.40;1.00;;;27.20;42.70;;;;;;5133903;28;20226;-48
2023/08/09 06:32:48;;;;;;;14.27;1.60;;;25.80;44.90;;;;;;5137250;28;20220;-47
2023/08/09 06:35:19;;;;;;;0.90;0.90;;;24.60;46.90;;;;;;5139731;28;20212;-48
2023/08/09 06:37:50;;;;;;;1.70;1.13;;;24.40;48.20;;;;;;5137603;28;20435;-47
2023/08/09 06:40:21;;;;;;;2.13;0.93;;;24.10;49.20;;;;;;5132079;28;20504;-46
2023/08/09 06:42:51;;;;;;;1.07;0.87;;;25.60;47.70;;;;;;5142349;28;20866;-48
2023/08/09 06:45:22;;;;;;;1.00;0.90;;;27.40;44.50;;;;;;5132471;28;20527;-47
2023/08/09 06:47:53;;;;;;;4.37;1.17;;;29.70;41.80;;;;;;5134936;28;20220;-47
2023/08/09 06:50:24;;;;;;;1.13;1.03;;;31.50;38.90;;;;;;5143090;28;20745;-47
2023/08/09 06:52:55;;;;;;;2.00;0.90;;;31.30;38.80;;;;;;5142783;28;20188;-47
2023/08/09 06:55:26;;;;;;;3.80;1.27;;;31.80;37.80;;;;;;5143979;28;20440;-47
2023/08/09 06:57:56;;;;;;;3.30;1.00;;;32.70;37.50;;;;;;5139976;28;20347;-48
2023/08/09 07:00:27;;;;;;;1.43;0.83;;;33.60;35.90;;;;;;5145507;28;20722;-48
2023/08/09 07:02:58;;;;;;;3.40;1.33;;;33.90;35.10;;;;;;5141127;28;20201;-47
2023/08/09 07:05:28;;;;;;;5.30;1.80;;;33.60;35.50;;;;;;5145035;28;20658;-48
2023/08/09 07:07:59;;;;;;;1.17;1.17;;;32.60;35.70;;;;;;5146055;28;20854;-47
2023/08/09 07:10:31;;;;;;;4.30;1.30;;;32.40;36.00;;;;;;5147557;28;20303;-48
2023/08/09 07:13:02;;;;;;;3.90;1.10;;;31.50;37.20;;;;;;5138621;28;20440;-46
2023/08/09 07:15:32;;;;;;;3.73;1.00;;;31.20;38.00;;;;;;5146016;28;20417;-47
2023/08/09 07:18:03;;;;;;;2.07;1.97;;;30.90;38.40;;;;;;5141665;28;20247;-47
2023/08/09 07:20:34;;;;;;;3.60;2.07;;;29.90;39.00;;;;;;5141941;28;20219;-47
2023/08/09 07:23:05;;;;;;;7.60;1.70;;;29.60;40.00;;;;;;5127965;28;20190;-47
2023/08/09 07:25:36;;;;;;;3.50;1.27;;;30.00;39.20;;;;;;5126793;28;20684;-46
2023/08/09 07:28:07;;;;;;;1.53;1.43;;;29.50;40.90;;;;;;5131095;28;20669;-47
2023/08/09 07:30:38;;;;;;;2.00;0.93;;;29.90;39.30;;;;;;5144323;28;20219;-47
2023/08/09 07:33:09;;;;;;;3.43;1.17;;;29.40;39.50;;;;;;5125389;28;20509;-48
2023/08/09 07:35:39;;;;;;;2.40;1.70;;;28.30;41.10;;;;;;5126714;28;20202;-48
2023/08/09 07:38:11;;;;;;;2.40;1.40;;;27.30;42.50;;;;;;5143207;28;20260;-47
2023/08/09 07:40:42;;;;;;;3.27;1.70;;;27.00;43.70;;;;;;5134504;28;20217;-47
2023/08/09 07:43:13;;;;;;;1.33;1.03;;;27.20;43.10;;;;;;5138874;28;20929;-47
2023/08/09 07:45:48;;;;;;;3.60;1.30;;;26.40;43.80;;;;;;5125022;28;20452;-46
2023/08/09 07:48:19;;;;;;;3.60;1.93;;;26.20;44.20;;;;;;5146551;28;20189;-45
2023/08/09 07:50:50;;;;;;;5.90;1.20;;;26.40;45.30;;;;;;5141082;28;20554;-47
2023/08/09 07:53:21;;;;;;;3.07;1.57;;;27.80;43.00;;;;;;5138087;28;20480;-48
2023/08/09 07:55:51;;;;;;;4.63;1.20;;;27.90;41.50;;;;;;5125875;28;20193;-46
2023/08/09 07:58:22;;;;;;;2.00;1.07;;;26.90;42.30;;;;;;5132036;28;20182;-46
2023/08/09 08:00:53;;;;;;;1.77;1.43;;;26.00;44.70;;;;;;5126493;28;20210;-47
2023/08/09 08:03:24;;;;;;;3.77;1.70;;;26.40;45.20;;;;;;5133107;28;20207;-48
2023/08/09 08:05:54;;;;;;;4.87;1.37;;;26.70;44.40;;;;;;5126311;28;20277;-48
2023/08/09 08:08:25;;;;;;;2.17;1.27;;;26.50;44.50;;;;;;5142048;28;20220;-47
2023/08/09 08:10:56;;;;;;;6.13;1.57;;;25.80;45.50;;;;;;5123107;28;20283;-48
2023/08/09 08:13:27;;;;;;;4.30;1.30;;;25.80;45.50;;;;;;5137230;28;20198;-47
2023/08/09 08:15:58;;;;;;;9.03;1.40;;;25.00;45.90;;;;;;5136456;28;20441;-48
2023/08/09 08:18:29;;;;;;;6.57;1.10;;;25.10;46.70;;;;;;5133198;28;20213;-48
2023/08/09 08:21:01;;;;;;;1.93;1.23;;;25.50;45.80;;;;;;5128742;28;20469;-49
2023/08/09 08:23:32;;;;;;;6.00;2.93;;;26.10;45.60;;;;;;5139011;28;20186;-47
2023/08/09 08:26:05;;;;;;;1.80;1.30;;;26.20;45.20;;;;;;5133441;28;20461;-48
2023/08/09 08:28:35;;;;;;;1.33;1.23;;;26.20;45.70;;;;;;5139458;28;20669;-48
2023/08/09 08:31:07;;;;;;;1.37;1.10;;;27.70;43.50;;;;;;5120996;28;20473;-47
2023/08/09 08:33:44;;;;;;;7.23;1.00;;;28.90;40.50;;;;;;5140651;28;20178;-47
2023/08/09 08:36:19;;;;;;;5.43;1.50;;;29.30;39.10;;;;;;5136612;28;20472;-48
2023/08/09 08:38:50;;;;;;;4.20;1.30;;;29.00;39.10;;;;;;5121206;28;20460;-47
2023/08/09 08:41:21;;;;;;;7.03;1.00;;;28.20;41.20;;;;;;5129477;28;20521;-45
2023/08/09 08:43:52;;;;;;;2.23;1.13;;;27.30;41.60;;;;;;5124401;28;20425;-46
2023/08/09 08:46:26;;;;;;;2.03;1.40;;;26.80;43.10;;;;;;5142271;28;20177;-46
2023/08/09 08:49:00;;;;;;;3.60;0.93;;;26.40;43.70;;;;;;5144871;28;20192;-47
2023/08/09 08:51:33;;;;;;;7.73;1.47;;;24.90;45.10;;;;;;5138897;28;20461;-46
2023/08/09 08:54:04;;;;;;;1.57;1.03;;;23.70;47.60;;;;;;5141901;28;20488;-46
2023/08/09 08:56:35;;;;;;;4.80;1.43;;;23.20;48.70;;;;;;5144923;28;20446;-47
2023/08/09 08:59:06;;;;;;;3.30;1.60;;;23.20;49.40;;;;;;5148372;28;20519;-48
2023/08/09 09:01:37;;;;;;;1.60;1.03;;;23.50;49.10;;;;;;5144241;28;20217;-48
2023/08/09 09:04:08;;;;;;;2.00;1.00;;;23.50;49.30;;;;;;5150540;28;20204;-48
2023/08/09 09:06:40;;;;;;;2.93;1.37;;;23.30;49.80;;;;;;5126958;28;20437;-49
2023/08/09 09:09:15;;;;;;;2.33;0.97;;;23.50;49.20;;;;;;5142695;28;20450;-47
2023/08/09 09:11:46;;;;;;;1.70;1.03;;;23.40;50.20;;;;;;5139115;28;20875;-46
2023/08/09 09:14:17;;;;;;;1.00;1.00;;;23.40;49.90;;;;;;5137909;28;20528;-46
2023/08/09 09:16:49;;;;;;;2.90;1.30;;;23.00;50.20;;;;;;5139128;28;20900;-48
2023/08/09 09:19:20;;;;;;;2.10;1.03;;;22.90;50.80;;;;;;5128463;28;20436;-46
2023/08/09 09:21:51;;;;;;;1.10;1.10;;;23.20;50.70;;;;;;5139579;28;20461;-48
2023/08/09 09:24:23;;;;;;;1.30;1.20;;;23.70;49.80;;;;;;5140922;28;20440;-47
2023/08/09 09:26:54;;;;;;;1.83;1.30;;;23.50;48.90;;;;;;5127346;28;20185;-47
2023/08/09 09:29:33;;;;;;;1.70;1.00;;;23.40;49.20;;;;;;5136084;28;20465;-47
2023/08/09 09:32:08;;;;;;;6.30;0.83;;;23.40;48.80;;;;;;5139156;28;20665;-47
2023/08/09 09:34:39;;;;;;;2.80;1.10;;;23.30;49.50;;;;;;5142656;28;20421;-46
2023/08/09 09:37:14;;;;;;;4.53;1.27;;;23.30;49.50;;;;;;5140612;28;20429;-49
2023/08/09 09:39:46;;;;;;;3.63;1.50;;;22.80;49.80;;;;;;5124873;28;20267;-48
2023/08/09 09:42:16;;;;;;;1.00;1.00;;;22.60;50.80;;;;;;5137618;28;20489;-47
2023/08/09 09:44:47;;;;;;;1.10;1.00;;;22.30;50.60;;;;;;5132191;28;20552;-48
2023/08/09 09:47:25;;;;;;;0.53;0.53;;;22.10;50.40;;;;;;5133560;28;20192;-49
2023/08/09 09:49:56;;;;;;;3.23;0.90;;;22.30;50.20;;;;;;5139350;28;20201;-46
2023/08/09 09:52:28;;;;;;;3.47;1.00;;;22.10;48.80;;;;;;5142446;28;20440;-46
2023/08/09 09:54:59;;;;;;;1.27;1.00;;;21.60;49.40;;;;;;5145779;28;20417;-47
2023/08/09 09:57:30;;;;;;;1.47;1.00;;;21.10;50.80;;;;;;5144693;28;20413;-47
2023/08/09 10:00:08;;;;;;;3.60;1.07;;;20.80;52.40;;;;;;5125504;28;20437;-47
2023/08/09 10:02:48;;;;;;;0.80;0.80;;;20.80;52.10;;;;;;5136840;28;20456;-47
2023/08/09 10:05:39;;;;;;;2.40;1.00;;;20.20;52.80;;;;;;5127202;28;20432;-48
2023/08/09 10:08:12;;;;;;;2.30;0.87;;;20.10;54.10;;;;;;5123912;28;20448;-48
2023/08/09 10:10:45;;;;;;;1.37;1.30;;;20.30;52.50;;;;;;5126868;28;20461;-47
2023/08/09 10:13:21;;;;;;;5.23;1.07;;;20.70;53.10;;;;;;5140260;28;20437;-47
2023/08/09 10:15:55;;;;;;;1.17;1.10;;;21.20;52.50;;;;;;5139816;28;20814;-46
2023/08/09 10:18:35;;;;;;;2.23;1.30;;;21.30;51.80;;;;;;5134402;28;20436;-46
2023/08/09 10:21:08;;;;;;;2.50;1.17;;;21.70;51.20;;;;;;5125686;28;20463;-46
2023/08/09 10:23:39;;;;;;;4.13;1.20;;;22.00;50.30;;;;;;5128050;28;20440;-48
2023/08/09 10:26:10;;;;;;;2.00;1.33;;;22.50;49.90;;;;;;5144154;28;21004;-46
2023/08/09 10:28:44;;;;;;;3.37;2.90;;;22.70;48.60;;;;;;5138210;28;20216;-47
2023/08/09 10:31:55;;;;;;;1.80;1.70;;;22.60;49.80;;;;;;5140073;28;20508;-46
2023/08/09 10:34:35;;;;;;;1.87;1.60;;;22.70;49.50;;;;;;5124273;28;20479;-47
2023/08/09 10:37:07;;;;;;;8.07;2.00;;;22.60;49.40;;;;;;5140146;28;20484;-49
2023/08/09 10:39:38;;;;;;;1.13;1.00;;;22.30;50.60;;;;;;5133966;28;20786;-47
2023/08/09 10:42:11;;;;;;;1.50;0.97;;;22.00;50.50;;;;;;5119430;28;20470;-46
2023/08/09 10:44:49;;;;;;;1.60;1.43;;;21.50;51.30;;;;;;5140507;28;20189;-49
2023/08/09 10:47:26;;;;;;;3.33;1.80;;;21.50;52.40;;;;;;5123853;28;20456;-47
2023/08/09 10:50:00;;;;;;;8.10;2.60;;;21.60;51.90;;;;;;5137826;28;20456;-48
2023/08/09 10:52:36;;;;;;;2.83;1.50;;;21.70;51.40;;;;;;5121803;28;20529;-47
2023/08/09 10:55:26;;;;;;;1.80;1.70;;;21.70;51.70;;;;;;5141957;28;20429;-47
2023/08/09 10:57:58;;;;;;;1.73;1.47;;;21.60;52.50;;;;;;5139492;28;20437;-46
2023/08/09 11:00:38;;;;;;;2.10;1.27;;;21.90;51.70;;;;;;5136995;28;20537;-46
2023/08/09 11:03:10;;;;;;;1.40;1.30;;;22.30;50.40;;;;;;5139972;28;20908;-47
2023/08/09 11:05:42;;;;;;;5.60;1.47;;;22.40;50.20;;;;;;5125109;28;20427;-46
2023/08/09 11:08:17;;;;;;;6.80;1.60;;;21.90;50.50;;;;;;5126906;28;20441;-47
2023/08/09 11:10:48;;;;;;;7.33;1.80;;;21.60;51.70;;;;;;5140228;28;20469;-47
2023/08/09 11:13:19;;;;;;;4.67;1.90;;;21.80;52.00;;;;;;5125914;28;20437;-47
2023/08/09 11:15:50;;;;;;;3.80;1.17;;;21.90;51.40;;;;;;5140065;28;20425;-46
2023/08/09 11:18:21;;;;;;;4.10;1.73;;;22.00;52.30;;;;;;5124354;28;20193;-47
2023/08/09 11:20:51;;;;;;;1.50;1.40;;;22.10;53.20;;;;;;5141162;28;20457;-47
2023/08/09 11:23:22;;;;;;;1.90;1.40;;;22.50;53.10;;;;;;5137287;28;20197;-46
2023/08/09 11:25:53;;;;;;;3.60;1.77;;;22.80;52.30;;;;;;5141919;28;20197;-47
2023/08/09 11:28:24;;;;;;;6.83;1.20;;;23.00;51.50;;;;;;5139826;28;20190;-47
2023/08/09 11:30:55;;;;;;;2.80;1.13;;;23.40;50.80;;;;;;5126275;28;20222;-47
2023/08/09 11:33:26;;;;;;;9.10;1.17;;;23.60;49.50;;;;;;5137294;28;20468;-47
2023/08/09 11:35:58;;;;;;;4.17;1.60;;;23.80;49.70;;;;;;5136325;28;20183;-46
2023/08/09 11:38:29;;;;;;;8.60;1.43;;;23.80;49.50;;;;;;5139924;28;20185;-47
2023/08/09 11:40:59;;;;;;;3.67;2.53;;;24.00;49.20;;;;;;5137638;28;20949;-46
2023/08/09 11:43:31;;;;;;;6.53;2.70;;;24.10;49.30;;;;;;5121269;28;20182;-46
2023/08/09 11:46:01;;;;;;;2.77;1.90;;;23.90;49.20;;;;;;5138506;28;20178;-48
2023/08/09 11:48:34;;;;;;;1.93;1.43;;;23.80;49.80;;;;;;5117998;28;20436;-48
2023/08/09 11:51:09;;;;;;;5.33;2.53;;;23.80;49.70;;;;;;5124382;28;20213;-45
2023/08/09 11:53:42;;;;;;;3.93;1.10;;;23.40;49.70;;;;;;5142348;28;20806;-46
2023/08/09 11:56:21;;;;;;;4.87;1.93;;;22.80;50.90;;;;;;5116908;28;20433;-48
2023/08/09 11:58:54;;;;;;;1.57;1.47;;;22.30;51.60;;;;;;5136326;28;20509;-46
2023/08/09 12:01:30;;;;;;;1.27;1.17;;;21.90;52.40;;;;;;5127517;28;20467;-46
2023/08/09 12:04:08;;;;;;;3.43;1.50;;;21.90;52.70;;;;;;5115841;28;20484;-48
2023/08/09 12:06:50;;;;;;;7.70;1.63;;;21.70;53.50;;;;;;5140047;28;20617;-47
2023/08/09 12:09:34;;;;;;;1.57;1.47;;;21.70;53.80;;;;;;5129355;28;20467;-48
2023/08/09 12:12:11;;;;;;;3.90;3.00;;;21.70;53.70;;;;;;5139077;28;20523;-47
2023/08/09 12:14:47;;;;;;;4.03;2.00;;;21.50;53.40;;;;;;5141615;28;20424;-47
2023/08/09 12:17:22;;;;;;;3.83;1.50;;;21.40;52.60;;;;;;5140343;28;20440;-47
2023/08/09 12:20:04;;;;;;;3.80;1.50;;;21.40;53.10;;;;;;5136049;28;20798;-48
2023/08/09 12:22:36;;;;;;;6.90;2.13;;;21.40;53.40;;;;;;5140531;28;20991;-46
2023/08/09 12:25:09;;;;;;;1.83;1.73;;;21.30;52.80;;;;;;5133700;28;20447;-47
2023/08/09 12:27:40;;;;;;;2.63;1.50;;;21.30;52.10;;;;;;5131050;28;20425;-46
2023/08/09 12:30:13;;;;;;;7.40;1.80;;;21.20;52.20;;;;;;5127838;28;20494;-47
2023/08/09 12:32:43;;;;;;;2.80;0.93;;;21.20;53.30;;;;;;5137688;28;20468;-46
2023/08/09 12:35:14;;;;;;;1.47;1.27;;;21.40;53.10;;;;;;5142002;28;21032;-47
2023/08/09 12:37:46;;;;;;;6.20;3.10;;;21.50;53.00;;;;;;5126977;28;20272;-48
2023/08/09 12:40:17;;;;;;;1.70;1.60;;;21.50;52.80;;;;;;5125999;28;20280;-47
2023/08/09 12:42:49;;;;;;;7.87;2.17;;;21.80;53.00;;;;;;5143499;28;20469;-47
2023/08/09 12:45:20;;;;;;;4.77;1.10;;;22.00;52.70;;;;;;5138412;28;20186;-46
2023/08/09 12:47:50;;;;;;;2.93;1.20;;;22.40;51.50;;;;;;5140483;28;20433;-46
2023/08/09 12:50:22;;;;;;;2.50;0.90;;;22.50;51.40;;;;;;5137861;28;20224;-48
2023/08/09 12:52:53;;;;;;;1.27;1.23;;;22.60;51.40;;;;;;5125314;28;20174;-46
2023/08/09 12:55:24;;;;;;;1.50;1.30;;;22.60;50.70;;;;;;5140581;28;20440;-47
2023/08/09 12:57:54;;;;;;;6.23;2.33;;;22.60;50.80;;;;;;5142475;28;20178;-48
2023/08/09 13:00:25;;;;;;;2.67;2.10;;;22.50;50.20;;;;;;5140472;28;20209;-46
2023/08/09 13:02:56;;;;;;;1.90;1.33;;;22.20;51.00;;;;;;5124351;28;20314;-47
2023/08/09 13:05:27;;;;;;;6.03;1.43;;;22.10;51.80;;;;;;5143458;28;20185;-47
2023/08/09 13:07:58;;;;;;;5.23;1.70;;;21.90;52.30;;;;;;5140491;28;20217;-47
2023/08/09 13:10:29;;;;;;;5.70;1.53;;;21.80;52.60;;;;;;5139435;28;21045;-47
2023/08/09 13:12:59;;;;;;;1.50;1.20;;;21.80;52.30;;;;;;5143217;28;20549;-46